<?xml version="1.0" encoding="UTF-8" standalone="no" ?>
<gpx xmlns="http://www.topografix.com/GPX/1/1" xmlns:xsi="http://www.w3.org/2001/XMLSchema-instance" xsi:schemaLocation="http://www.topografix.com/GPX/1/1 http://www.topografix.com/GPX/1/1/gpx.xsd" version="1.1" creator="VisuGPX - https://www.visugpx.com">
  <metadata>
    <name>Vacances 2021</name>
  </metadata>
  <trk>
    <name><![CDATA[Journal actif: 2021-07-23 14:52]]></name>
    <trkseg>
      <trkpt lat="49.23529" lon="5.47245">
        <ele>255.37</ele>
        <time>2021-07-23T16:52:57Z</time>
      </trkpt>
      <trkpt lat="49.23531" lon="5.47271">
        <ele>253.44</ele>
        <time>2021-07-23T16:53:00Z</time>
      </trkpt>
      <trkpt lat="49.23532" lon="5.47284">
        <ele>252.96</ele>
        <time>2021-07-23T16:53:01Z</time>
      </trkpt>
      <trkpt lat="49.23529" lon="5.47297">
        <ele>252</ele>
        <time>2021-07-23T16:53:02Z</time>
      </trkpt>
      <trkpt lat="49.23525" lon="5.4732">
        <ele>251.04</ele>
        <time>2021-07-23T16:53:04Z</time>
      </trkpt>
      <trkpt lat="49.23515" lon="5.47342">
        <ele>251.04</ele>
        <time>2021-07-23T16:53:05Z</time>
      </trkpt>
      <trkpt lat="49.23508" lon="5.47352">
        <ele>249.6</ele>
        <time>2021-07-23T16:53:06Z</time>
      </trkpt>
      <trkpt lat="49.23501" lon="5.47362">
        <ele>249.12</ele>
        <time>2021-07-23T16:53:07Z</time>
      </trkpt>
      <trkpt lat="49.23501" lon="5.47362">
        <ele>249.12</ele>
        <time>2021-07-23T16:53:08Z</time>
      </trkpt>
      <trkpt lat="49.23391" lon="5.47526">
        <ele>257.77</ele>
        <time>2021-07-23T16:53:23Z</time>
      </trkpt>
      <trkpt lat="49.23298" lon="5.47612">
        <ele>264.5</ele>
        <time>2021-07-23T16:53:33Z</time>
      </trkpt>
      <trkpt lat="49.2317" lon="5.47651">
        <ele>264.98</ele>
        <time>2021-07-23T16:53:44Z</time>
      </trkpt>
      <trkpt lat="49.22952" lon="5.47702">
        <ele>254.89</ele>
        <time>2021-07-23T16:54:01Z</time>
      </trkpt>
      <trkpt lat="49.22757" lon="5.47748">
        <ele>262.58</ele>
        <time>2021-07-23T16:54:14Z</time>
      </trkpt>
      <trkpt lat="49.2259" lon="5.47787">
        <ele>266.42</ele>
        <time>2021-07-23T16:54:28Z</time>
      </trkpt>
      <trkpt lat="49.22382" lon="5.47836">
        <ele>259.69</ele>
        <time>2021-07-23T16:54:42Z</time>
      </trkpt>
      <trkpt lat="49.22216" lon="5.47874">
        <ele>264.98</ele>
        <time>2021-07-23T16:54:53Z</time>
      </trkpt>
      <trkpt lat="49.22047" lon="5.47907">
        <ele>261.14</ele>
        <time>2021-07-23T16:55:05Z</time>
      </trkpt>
      <trkpt lat="49.22032" lon="5.47907">
        <ele>259.69</ele>
        <time>2021-07-23T16:55:06Z</time>
      </trkpt>
      <trkpt lat="49.22017" lon="5.47907">
        <ele>259.21</ele>
        <time>2021-07-23T16:55:07Z</time>
      </trkpt>
      <trkpt lat="49.22004" lon="5.47902">
        <ele>259.69</ele>
        <time>2021-07-23T16:55:08Z</time>
      </trkpt>
      <trkpt lat="49.21955" lon="5.47875">
        <ele>261.14</ele>
        <time>2021-07-23T16:55:12Z</time>
      </trkpt>
      <trkpt lat="49.21884" lon="5.47868">
        <ele>263.06</ele>
        <time>2021-07-23T16:55:19Z</time>
      </trkpt>
      <trkpt lat="49.21875" lon="5.47871">
        <ele>262.1</ele>
        <time>2021-07-23T16:55:22Z</time>
      </trkpt>
      <trkpt lat="49.21874" lon="5.47872">
        <ele>262.58</ele>
        <time>2021-07-23T16:55:37Z</time>
      </trkpt>
      <trkpt lat="49.21867" lon="5.47875">
        <ele>262.58</ele>
        <time>2021-07-23T16:55:47Z</time>
      </trkpt>
      <trkpt lat="49.2181" lon="5.47912">
        <ele>260.65</ele>
        <time>2021-07-23T16:55:55Z</time>
      </trkpt>
      <trkpt lat="49.21687" lon="5.48007">
        <ele>267.38</ele>
        <time>2021-07-23T16:56:06Z</time>
      </trkpt>
      <trkpt lat="49.21494" lon="5.48158">
        <ele>260.65</ele>
        <time>2021-07-23T16:56:23Z</time>
      </trkpt>
      <trkpt lat="49.214" lon="5.48231">
        <ele>254.89</ele>
        <time>2021-07-23T16:56:32Z</time>
      </trkpt>
      <trkpt lat="49.214" lon="5.48231">
        <ele>254.41</ele>
        <time>2021-07-23T16:56:35Z</time>
      </trkpt>
      <trkpt lat="49.2142" lon="5.48216">
        <ele>255.85</ele>
        <time>2021-07-23T16:56:44Z</time>
      </trkpt>
      <trkpt lat="49.2142" lon="5.48216">
        <ele>255.85</ele>
        <time>2021-07-23T16:56:48Z</time>
      </trkpt>
      <trkpt lat="49.21421" lon="5.48215">
        <ele>255.85</ele>
        <time>2021-07-23T16:56:49Z</time>
      </trkpt>
      <trkpt lat="49.21419" lon="5.48212">
        <ele>255.85</ele>
        <time>2021-07-23T16:56:50Z</time>
      </trkpt>
      <trkpt lat="49.21392" lon="5.48151">
        <ele>257.29</ele>
        <time>2021-07-23T16:56:59Z</time>
      </trkpt>
      <trkpt lat="49.21329" lon="5.47986">
        <ele>260.17</ele>
        <time>2021-07-23T16:57:13Z</time>
      </trkpt>
      <trkpt lat="49.21283" lon="5.47855">
        <ele>261.14</ele>
        <time>2021-07-23T16:57:21Z</time>
      </trkpt>
      <trkpt lat="49.21201" lon="5.47621">
        <ele>261.14</ele>
        <time>2021-07-23T16:57:35Z</time>
      </trkpt>
      <trkpt lat="49.21161" lon="5.47508">
        <ele>263.06</ele>
        <time>2021-07-23T16:57:46Z</time>
      </trkpt>
      <trkpt lat="49.21158" lon="5.47495">
        <ele>263.06</ele>
        <time>2021-07-23T16:57:48Z</time>
      </trkpt>
      <trkpt lat="49.21154" lon="5.47481">
        <ele>263.54</ele>
        <time>2021-07-23T16:57:49Z</time>
      </trkpt>
      <trkpt lat="49.21154" lon="5.47481">
        <ele>263.54</ele>
        <time>2021-07-23T16:57:50Z</time>
      </trkpt>
      <trkpt lat="49.21158" lon="5.47477">
        <ele>264.02</ele>
        <time>2021-07-23T16:57:51Z</time>
      </trkpt>
      <trkpt lat="49.21162" lon="5.47471">
        <ele>264.5</ele>
        <time>2021-07-23T16:57:52Z</time>
      </trkpt>
      <trkpt lat="49.21166" lon="5.47466">
        <ele>264.5</ele>
        <time>2021-07-23T16:57:53Z</time>
      </trkpt>
      <trkpt lat="49.2117" lon="5.47461">
        <ele>265.46</ele>
        <time>2021-07-23T16:57:54Z</time>
      </trkpt>
      <trkpt lat="49.21178" lon="5.47449">
        <ele>265.94</ele>
        <time>2021-07-23T16:57:56Z</time>
      </trkpt>
      <trkpt lat="49.21182" lon="5.47443">
        <ele>266.9</ele>
        <time>2021-07-23T16:57:57Z</time>
      </trkpt>
      <trkpt lat="49.21184" lon="5.47434">
        <ele>267.38</ele>
        <time>2021-07-23T16:57:58Z</time>
      </trkpt>
      <trkpt lat="49.21184" lon="5.47425">
        <ele>267.38</ele>
        <time>2021-07-23T16:57:59Z</time>
      </trkpt>
      <trkpt lat="49.21184" lon="5.47417">
        <ele>267.86</ele>
        <time>2021-07-23T16:58:00Z</time>
      </trkpt>
      <trkpt lat="49.21182" lon="5.47408">
        <ele>267.86</ele>
        <time>2021-07-23T16:58:01Z</time>
      </trkpt>
      <trkpt lat="49.21126" lon="5.47256">
        <ele>269.31</ele>
        <time>2021-07-23T16:58:16Z</time>
      </trkpt>
      <trkpt lat="49.2108" lon="5.4713">
        <ele>269.79</ele>
        <time>2021-07-23T16:58:30Z</time>
      </trkpt>
      <trkpt lat="49.21059" lon="5.47083">
        <ele>269.31</ele>
        <time>2021-07-23T16:58:41Z</time>
      </trkpt>
      <trkpt lat="49.21038" lon="5.47078">
        <ele>265.46</ele>
        <time>2021-07-23T16:58:50Z</time>
      </trkpt>
      <trkpt lat="49.21028" lon="5.47075">
        <ele>264.02</ele>
        <time>2021-07-23T16:58:57Z</time>
      </trkpt>
      <trkpt lat="49.2101" lon="5.4707">
        <ele>263.54</ele>
        <time>2021-07-23T16:59:01Z</time>
      </trkpt>
      <trkpt lat="49.21005" lon="5.47069">
        <ele>263.54</ele>
        <time>2021-07-23T16:59:02Z</time>
      </trkpt>
      <trkpt lat="49.20999" lon="5.47067">
        <ele>263.06</ele>
        <time>2021-07-23T16:59:03Z</time>
      </trkpt>
    </trkseg>
  </trk>
</gpx>